Terminal Aerodrome Forecast
Issued by NWS Amarillo, TX

Home | Current Version | Previous Version | Text Only | Print | Product List | Glossary On
Versions: 1 2 3 4 5 6 7 8 9 10 11 12 13 14 15 16 17 18 19 20 21 22
328
FTUS44 KAMA 231737
TAFAMA
TAF
KAMA 231737Z 2318/2418 16008KT P6SM SKC
     FM240100 15011KT P6SM SCT150
     FM241700 02015KT P6SM BKN250=

USA.gov is the U.S. government's official web portal to all federal, state and local government web resources and services.